createdAt,value
2023-06-30T00:00:00.000Z,8.29
2023-06-30T00:15:00.000Z,7.65
2023-06-30T00:30:00.000Z,7.8
2023-06-30T00:45:00.000Z,8.4
2023-06-30T01:00:00.000Z,8.11
2023-06-30T01:15:00.000Z,8.56
2023-06-30T01:30:00.000Z,8.85
2023-06-30T01:45:00.000Z,8.68
2023-06-30T02:00:00.000Z,10.65
2023-06-30T02:15:00.000Z,7.93
2023-06-30T02:30:00.000Z,7.6
2023-06-30T02:45:00.000Z,7.98
2023-06-30T03:00:00.000Z,9.67
2023-06-30T03:15:00.000Z,9.74
2023-06-30T03:30:00.000Z,9.6
2023-06-30T03:45:00.000Z,8.86
2023-06-30T04:00:00.000Z,9.51
2023-06-30T04:15:00.000Z,9.59
2023-06-30T04:30:00.000Z,9.21
2023-06-30T04:45:00.000Z,9.88
2023-06-30T05:00:00.000Z,7.88
2023-06-30T05:15:00.000Z,7.16
2023-06-30T05:30:00.000Z,7.24
2023-06-30T05:45:00.000Z,7.65
2023-06-30T06:00:00.000Z,7.58
2023-06-30T06:15:00.000Z,7.75
2023-06-30T06:30:00.000Z,7.84
2023-06-30T06:45:00.000Z,9.4
2023-06-30T07:00:00.000Z,10.38
2023-06-30T07:15:00.000Z,10.66
2023-06-30T07:30:00.000Z,9.21
2023-06-30T07:45:00.000Z,11.32
2023-06-30T08:00:00.000Z,11.44
2023-06-30T08:15:00.000Z,11.85
2023-06-30T08:30:00.000Z,12.2
2023-06-30T08:45:00.000Z,13.59
2023-06-30T09:00:00.000Z,12.05
2023-06-30T09:15:00.000Z,11.71
2023-06-30T09:30:00.000Z,11.51
2023-06-30T09:45:00.000Z,8.98
2023-06-30T10:00:00.000Z,8
2023-06-30T10:15:00.000Z,7.36
2023-06-30T10:30:00.000Z,9.41
2023-06-30T10:45:00.000Z,12.4
2023-06-30T11:00:00.000Z,14.36
2023-06-30T11:15:00.000Z,17.12
2023-06-30T11:30:00.000Z,18.96
2023-06-30T11:45:00.000Z,18.55
2023-06-30T12:00:00.000Z,19.54
2023-06-30T12:15:00.000Z,21.25
2023-06-30T12:30:00.000Z,22.06
2023-06-30T12:45:00.000Z,21.68
2023-06-30T13:00:00.000Z,22.69
2023-06-30T13:15:00.000Z,24.52
2023-06-30T13:30:00.000Z,25.19
2023-06-30T13:45:00.000Z,23.72
2023-06-30T14:00:00.000Z,17.61
2023-06-30T14:15:00.000Z,16.53
2023-06-30T14:30:00.000Z,16.68
2023-06-30T14:45:00.000Z,17.71
2023-06-30T15:00:00.000Z,17.16
2023-06-30T15:15:00.000Z,17.25
2023-06-30T15:30:00.000Z,18.33
2023-06-30T15:45:00.000Z,17.89
2023-06-30T16:00:00.000Z,17.69
2023-06-30T16:15:00.000Z,18.2
2023-06-30T16:30:00.000Z,19.08
2023-06-30T16:45:00.000Z,18.61
2023-06-30T17:00:00.000Z,18.94
2023-06-30T17:15:00.000Z,18.24
2023-06-30T17:30:00.000Z,17.07
2023-06-30T17:45:00.000Z,16.84
2023-06-30T18:00:00.000Z,17.68
2023-06-30T18:15:00.000Z,19.06
2023-06-30T18:30:00.000Z,20.19
2023-06-30T18:45:00.000Z,21.75
2023-06-30T19:00:00.000Z,24.14
2023-06-30T19:15:00.000Z,22.25
2023-06-30T19:30:00.000Z,23.19
2023-06-30T19:45:00.000Z,20.62
2023-06-30T20:00:00.000Z,21.92
2023-06-30T20:15:00.000Z,25.71
2023-06-30T20:30:00.000Z,25.07
2023-06-30T20:45:00.000Z,25.35
2023-06-30T21:00:00.000Z,27.95
2023-06-30T21:15:00.000Z,30.34
2023-06-30T21:30:00.000Z,32.27
2023-06-30T21:45:00.000Z,37.68
2023-06-30T22:00:00.000Z,39.65
2023-06-30T22:15:00.000Z,35.79
2023-06-30T22:30:00.000Z,33.16
2023-06-30T22:45:00.000Z,30.52
2023-06-30T23:00:00.000Z,31.16
2023-06-30T23:15:00.000Z,36.42
2023-06-30T23:30:00.000Z,37.16
2023-06-30T23:45:00.000Z,39.41
